createdAt,value
2023-03-06T00:00:32.686Z,6.03
2023-03-06T00:02:59.823Z,6.23
2023-03-06T00:05:27.202Z,5.70
2023-03-06T00:07:54.329Z,6.67
2023-03-06T00:10:23.158Z,7.43
2023-03-06T00:12:52.868Z,6.57
2023-03-06T00:15:20.359Z,6.30
2023-03-06T00:17:47.523Z,6.20
2023-03-06T00:20:15.116Z,6.23
2023-03-06T00:22:42.323Z,6.30
2023-03-06T00:25:13.090Z,6.77
2023-03-06T00:27:40.218Z,6.27
2023-03-06T00:30:08.199Z,6.20
2023-03-06T00:32:35.393Z,5.83
2023-03-06T00:35:02.534Z,6.37
2023-03-06T00:37:29.639Z,6.50
2023-03-06T00:39:56.737Z,5.80
2023-03-06T00:42:23.852Z,5.93
2023-03-06T00:44:50.941Z,6.50
2023-03-06T00:47:18.187Z,5.87
2023-03-06T00:49:45.871Z,5.90
2023-03-06T00:52:13.377Z,6.73
2023-03-06T00:54:40.807Z,6.13
2023-03-06T00:57:07.956Z,6.37
2023-03-06T00:59:35.070Z,6.23
2023-03-06T01:02:02.396Z,6.40
2023-03-06T01:04:29.558Z,5.93
2023-03-06T01:06:57.128Z,6.23
2023-03-06T01:09:24.417Z,6.43
2023-03-06T01:11:51.529Z,6.20
2023-03-06T01:14:21.715Z,6.10
2023-03-06T01:16:48.856Z,6.87
2023-03-06T01:19:16.004Z,6.33
2023-03-06T01:21:43.097Z,6.40
2023-03-06T01:24:10.207Z,6.80
2023-03-06T01:26:37.337Z,6.63
2023-03-06T01:29:04.572Z,6.43
2023-03-06T01:31:31.713Z,6.70
2023-03-06T01:33:58.949Z,6.40
2023-03-06T01:36:26.043Z,5.90
2023-03-06T01:38:53.157Z,6.50
2023-03-06T01:41:21.460Z,6.27
2023-03-06T01:43:48.690Z,5.70
2023-03-06T01:46:25.050Z,6.50
2023-03-06T01:49:01.491Z,5.90
2023-03-06T01:51:33.833Z,6.40
2023-03-06T01:54:02.330Z,5.53
2023-03-06T01:56:29.510Z,6.50
2023-03-06T01:58:57.040Z,6.20
2023-03-06T02:01:24.316Z,6.03
2023-03-06T02:03:52.077Z,6.20
2023-03-06T02:06:21.807Z,6.00
2023-03-06T02:08:50.892Z,6.63
2023-03-06T02:11:19.664Z,7.30
2023-03-06T02:13:47.598Z,5.97
2023-03-06T02:16:15.749Z,6.77
2023-03-06T02:18:43.408Z,6.90
2023-03-06T02:21:11.481Z,6.87
2023-03-06T02:24:04.925Z,6.30
2023-03-06T02:26:33.213Z,6.50
2023-03-06T02:29:00.376Z,6.90
2023-03-06T02:31:28.905Z,7.00
2023-03-06T02:34:14.727Z,7.00
2023-03-06T02:36:43.900Z,5.80
2023-03-06T02:39:11.173Z,7.37
2023-03-06T02:41:38.377Z,7.10
2023-03-06T02:44:05.520Z,6.93
2023-03-06T02:46:32.718Z,7.13
2023-03-06T02:48:59.852Z,6.67
2023-03-06T02:51:26.971Z,7.10
2023-03-06T02:53:54.169Z,7.87
2023-03-06T02:56:21.347Z,6.83
2023-03-06T02:58:48.465Z,7.00
2023-03-06T03:01:16.017Z,7.20
2023-03-06T03:03:43.231Z,7.03
2023-03-06T03:06:10.417Z,7.20
2023-03-06T03:08:37.541Z,7.30
2023-03-06T03:11:05.634Z,7.97
2023-03-06T03:13:33.112Z,7.77
2023-03-06T03:16:04.752Z,7.90
2023-03-06T03:18:32.086Z,7.77
2023-03-06T03:20:59.355Z,8.20
2023-03-06T03:23:26.928Z,8.30
2023-03-06T03:25:54.053Z,8.17
2023-03-06T03:28:21.206Z,7.97
2023-03-06T03:30:48.431Z,8.90
2023-03-06T03:33:15.591Z,8.87
2023-03-06T03:35:42.777Z,8.53
2023-03-06T03:38:10.042Z,8.87
2023-03-06T03:40:37.180Z,9.13
2023-03-06T03:43:04.314Z,9.37
2023-03-06T03:45:31.520Z,9.30
2023-03-06T03:47:58.658Z,9.43
2023-03-06T03:50:25.833Z,9.87
2023-03-06T03:52:52.968Z,10.33
2023-03-06T03:55:20.120Z,10.47
2023-03-06T03:57:47.266Z,10.60
2023-03-06T04:00:16.604Z,10.63
2023-03-06T04:02:44.566Z,10.60
2023-03-06T04:05:12.785Z,10.30
2023-03-06T04:07:39.961Z,10.57
2023-03-06T04:10:08.056Z,11.00
2023-03-06T04:12:35.488Z,11.70
2023-03-06T04:15:02.727Z,11.63
2023-03-06T04:17:29.928Z,11.17
2023-03-06T04:19:57.084Z,11.33
2023-03-06T04:22:24.224Z,11.60
2023-03-06T04:24:51.396Z,12.20
2023-03-06T04:27:18.600Z,11.43
2023-03-06T04:29:45.768Z,12.13
2023-03-06T04:32:12.924Z,12.27
2023-03-06T04:34:40.047Z,12.37
2023-03-06T04:37:07.178Z,11.57
2023-03-06T04:39:34.316Z,12.40
2023-03-06T04:42:01.452Z,12.60
2023-03-06T04:44:28.657Z,13.00
2023-03-06T04:46:55.797Z,13.33
2023-03-06T04:49:23.082Z,12.10
2023-03-06T04:51:50.206Z,12.80
2023-03-06T04:54:19.003Z,13.70
2023-03-06T04:56:46.256Z,13.07
2023-03-06T04:59:13.445Z,13.67
2023-03-06T05:01:40.615Z,14.30
2023-03-06T05:04:07.740Z,13.83
2023-03-06T05:06:34.867Z,15.00
2023-03-06T05:09:01.992Z,14.03
2023-03-06T05:11:29.123Z,13.00
2023-03-06T05:13:56.237Z,13.23
2023-03-06T05:16:23.468Z,14.37
2023-03-06T05:18:50.842Z,14.70
2023-03-06T05:21:18.051Z,14.40
2023-03-06T05:23:45.175Z,14.83
2023-03-06T05:26:13.250Z,15.13
2023-03-06T05:28:40.706Z,15.00
2023-03-06T05:31:08.107Z,14.73
2023-03-06T05:33:36.245Z,15.30
2023-03-06T05:36:03.800Z,15.67
2023-03-06T05:38:30.927Z,14.83
2023-03-06T05:40:58.081Z,14.60
2023-03-06T05:43:25.186Z,15.33
2023-03-06T05:45:53.117Z,15.87
2023-03-06T05:48:20.334Z,14.57
2023-03-06T05:50:47.481Z,15.37
2023-03-06T05:53:14.586Z,15.97
2023-03-06T05:55:41.711Z,16.03
2023-03-06T05:58:08.916Z,16.07
2023-03-06T06:00:36.033Z,16.50
2023-03-06T06:03:03.407Z,15.83
2023-03-06T06:05:30.551Z,16.23
2023-03-06T06:07:57.691Z,15.33
2023-03-06T06:10:24.824Z,17.07
2023-03-06T06:12:51.940Z,16.83
2023-03-06T06:15:19.170Z,15.73
2023-03-06T06:17:46.252Z,15.90
2023-03-06T06:20:14.234Z,15.17
2023-03-06T06:22:41.615Z,16.27
2023-03-06T06:25:08.980Z,16.90
2023-03-06T06:27:36.057Z,16.80
2023-03-06T06:30:03.440Z,14.30
2023-03-06T06:32:30.598Z,15.93
2023-03-06T06:34:57.766Z,16.17
2023-03-06T06:37:26.128Z,16.07
2023-03-06T06:39:53.326Z,16.07
2023-03-06T06:42:31.972Z,15.43
2023-03-06T06:45:02.521Z,16.40
2023-03-06T06:47:29.803Z,14.80
2023-03-06T06:49:57.332Z,15.80
2023-03-06T06:52:25.038Z,14.70
2023-03-06T06:54:52.652Z,16.20
2023-03-06T06:57:19.809Z,15.87
2023-03-06T06:59:47.005Z,16.93
2023-03-06T07:02:15.803Z,16.57
2023-03-06T07:05:00.367Z,15.90
2023-03-06T07:07:30.267Z,16.77
2023-03-06T07:09:57.540Z,16.90
2023-03-06T07:12:24.675Z,17.17
2023-03-06T07:14:51.793Z,16.17
2023-03-06T07:17:18.912Z,16.40
2023-03-06T07:19:46.285Z,16.20
2023-03-06T07:22:13.864Z,16.07
2023-03-06T07:24:40.992Z,16.20
2023-03-06T07:27:08.179Z,16.30
2023-03-06T07:29:35.336Z,16.50
2023-03-06T07:32:02.623Z,16.83
2023-03-06T07:34:29.807Z,16.60
2023-03-06T07:36:56.980Z,16.97
2023-03-06T07:39:24.150Z,16.50
2023-03-06T07:41:52.365Z,17.03
2023-03-06T07:44:19.497Z,16.37
2023-03-06T07:46:46.726Z,15.17
2023-03-06T07:49:13.964Z,15.20
2023-03-06T07:51:41.213Z,14.43
2023-03-06T07:54:08.376Z,15.87
2023-03-06T07:56:35.578Z,16.00
2023-03-06T07:59:02.737Z,14.93
2023-03-06T08:01:29.886Z,15.80
2023-03-06T08:03:57.703Z,16.63
2023-03-06T08:06:26.169Z,16.37
2023-03-06T08:08:54.611Z,17.17
2023-03-06T08:11:22.840Z,16.33
2023-03-06T08:13:52.566Z,17.17
2023-03-06T08:16:23.690Z,16.00
2023-03-06T08:18:51.268Z,17.17
2023-03-06T08:21:19.900Z,17.17
2023-03-06T08:23:47.573Z,16.57
2023-03-06T08:26:18.689Z,16.17
2023-03-06T08:28:45.919Z,16.40
2023-03-06T08:31:19.037Z,15.27
2023-03-06T08:33:46.164Z,15.67
2023-03-06T08:36:14.557Z,14.10
2023-03-06T08:38:41.751Z,15.03
2023-03-06T08:41:08.912Z,14.93
2023-03-06T08:43:36.280Z,13.60
2023-03-06T08:46:03.469Z,12.93
2023-03-06T08:48:30.728Z,13.20
2023-03-06T08:50:58.092Z,12.53
2023-03-06T08:53:40.418Z,13.17
2023-03-06T08:56:09.487Z,12.20
2023-03-06T08:58:36.750Z,12.03
2023-03-06T09:01:07.206Z,11.30
2023-03-06T09:03:34.437Z,12.77
2023-03-06T09:06:01.777Z,11.73
2023-03-06T09:08:28.980Z,11.23
2023-03-06T09:10:56.129Z,11.13
2023-03-06T09:13:23.332Z,12.07
2023-03-06T09:15:50.454Z,10.90
2023-03-06T09:18:17.579Z,11.27
2023-03-06T09:20:44.905Z,11.60
2023-03-06T09:23:12.095Z,10.77
2023-03-06T09:25:39.215Z,11.53
2023-03-06T09:28:11.683Z,11.13
2023-03-06T09:30:40.329Z,10.73
2023-03-06T09:33:07.993Z,10.30
2023-03-06T09:35:35.220Z,10.83
2023-03-06T09:38:02.414Z,10.93
2023-03-06T09:40:48.499Z,10.53
2023-03-06T09:43:20.314Z,9.30
2023-03-06T09:45:47.580Z,9.97
2023-03-06T09:48:15.739Z,9.30
2023-03-06T09:50:51.664Z,9.40
2023-03-06T09:53:18.794Z,9.60
2023-03-06T09:55:48.212Z,9.60
2023-03-06T09:58:22.811Z,10.67
2023-03-06T10:00:56.075Z,10.73
2023-03-06T10:03:39.609Z,10.87
2023-03-06T10:06:18.984Z,10.53
2023-03-06T10:08:48.901Z,11.00
2023-03-06T10:11:19.147Z,10.53
2023-03-06T10:13:48.919Z,10.20
2023-03-06T10:16:26.119Z,9.67
2023-03-06T10:18:54.347Z,10.17
2023-03-06T10:21:29.839Z,10.20
2023-03-06T10:24:14.267Z,10.93
2023-03-06T10:26:45.512Z,11.47
2023-03-06T10:29:12.681Z,11.23
2023-03-06T10:31:50.554Z,11.23
2023-03-06T10:34:24.613Z,10.50
2023-03-06T10:36:51.793Z,11.10
2023-03-06T10:39:22.820Z,10.70
2023-03-06T10:41:50.445Z,11.50
2023-03-06T10:44:18.753Z,10.23
2023-03-06T10:46:47.040Z,11.40
2023-03-06T10:49:20.461Z,12.20
2023-03-06T10:51:58.505Z,11.40
2023-03-06T10:54:26.158Z,10.60
2023-03-06T10:56:53.302Z,11.53
2023-03-06T10:59:29.368Z,12.20
2023-03-06T11:01:58.202Z,11.60
2023-03-06T11:04:25.370Z,11.53
2023-03-06T11:07:05.642Z,12.73
2023-03-06T11:09:35.845Z,12.07
2023-03-06T11:12:23.605Z,11.13
2023-03-06T11:15:09.216Z,11.03
2023-03-06T11:17:38.157Z,12.10
2023-03-06T11:20:18.789Z,12.23
2023-03-06T11:23:06.234Z,11.40
2023-03-06T11:25:35.202Z,12.07
2023-03-06T11:28:12.963Z,11.83
2023-03-06T11:30:43.441Z,12.07
2023-03-06T11:33:22.755Z,11.17
2023-03-06T11:35:57.891Z,11.30
2023-03-06T11:38:34.538Z,11.33
2023-03-06T11:41:03.083Z,11.23
2023-03-06T11:43:38.026Z,10.77
2023-03-06T11:46:05.162Z,10.20
2023-03-06T11:48:35.358Z,11.13
2023-03-06T11:51:07.885Z,10.70
2023-03-06T11:53:37.692Z,10.00
2023-03-06T11:56:04.871Z,10.30
2023-03-06T11:58:35.096Z,11.43
2023-03-06T12:01:14.294Z,9.73
2023-03-06T12:03:44.188Z,10.37
2023-03-06T12:06:16.242Z,9.67
2023-03-06T12:09:04.747Z,10.60
2023-03-06T12:11:33.252Z,10.67
2023-03-06T12:14:16.444Z,10.87
2023-03-06T12:17:05.603Z,10.47
2023-03-06T12:19:33.253Z,11.13
2023-03-06T12:22:13.689Z,10.30
2023-03-06T12:24:52.692Z,10.70
2023-03-06T12:27:28.431Z,10.07
2023-03-06T12:29:55.550Z,8.90
2023-03-06T12:32:41.591Z,7.80
2023-03-06T12:35:24.478Z,9.20
2023-03-06T12:38:06.216Z,9.50
2023-03-06T12:40:33.451Z,9.23
2023-03-06T12:43:20.873Z,8.67
2023-03-06T12:45:49.709Z,8.77
2023-03-06T12:48:19.831Z,9.70
2023-03-06T12:50:47.472Z,9.73
2023-03-06T12:53:31.182Z,10.40
2023-03-06T12:55:59.008Z,9.37
2023-03-06T12:58:29.396Z,9.73
2023-03-06T13:01:03.576Z,9.53
2023-03-06T13:03:31.106Z,9.07
2023-03-06T13:06:16.997Z,10.30
2023-03-06T13:09:02.803Z,12.33
2023-03-06T13:12:08.481Z,11.60
2023-03-06T13:14:35.884Z,11.30
2023-03-06T13:17:23.003Z,11.80
2023-03-06T13:20:10.106Z,10.37
2023-03-06T13:22:37.232Z,11.70
2023-03-06T13:25:19.933Z,10.37
2023-03-06T13:27:47.148Z,11.00
2023-03-06T13:30:41.745Z,10.53
2023-03-06T13:33:29.914Z,10.07
2023-03-06T13:35:58.075Z,10.57
2023-03-06T13:38:34.395Z,10.50
2023-03-06T13:41:20.049Z,10.50
2023-03-06T13:43:48.400Z,9.70
2023-03-06T13:46:25.950Z,9.27
2023-03-06T13:49:06.918Z,9.53
2023-03-06T13:51:41.814Z,10.00
2023-03-06T13:54:27.064Z,9.80
2023-03-06T13:57:12.703Z,9.90
2023-03-06T14:00:08.230Z,9.60
2023-03-06T14:02:57.067Z,10.13
2023-03-06T14:05:24.353Z,9.47
2023-03-06T14:08:10.397Z,9.33
2023-03-06T14:10:37.772Z,9.27
2023-03-06T14:13:07.346Z,9.40
2023-03-06T14:15:45.816Z,9.37
2023-03-06T14:18:25.112Z,9.20
2023-03-06T14:20:56.186Z,10.07
2023-03-06T14:23:28.035Z,9.03
2023-03-06T14:26:01.377Z,10.40
2023-03-06T14:28:30.011Z,9.20
2023-03-06T14:30:58.395Z,9.37
2023-03-06T14:33:28.388Z,8.03
2023-03-06T14:35:57.347Z,8.63
2023-03-06T14:38:24.567Z,8.00
2023-03-06T14:40:52.418Z,8.27
2023-03-06T14:43:27.100Z,9.20
2023-03-06T14:45:58.409Z,8.37
2023-03-06T14:48:27.406Z,8.33
2023-03-06T14:50:57.907Z,8.10
2023-03-06T14:53:27.569Z,8.63
2023-03-06T14:55:57.838Z,9.13
2023-03-06T14:58:34.192Z,9.20
2023-03-06T15:01:09.182Z,9.17
2023-03-06T15:03:43.853Z,9.17
2023-03-06T15:06:18.914Z,9.30
2023-03-06T15:08:47.628Z,9.50
2023-03-06T15:11:14.741Z,9.23
2023-03-06T15:13:42.024Z,8.90
2023-03-06T15:16:15.302Z,9.03
2023-03-06T15:19:02.003Z,8.63
2023-03-06T15:21:32.624Z,8.83
2023-03-06T15:23:59.905Z,9.37
2023-03-06T15:26:29.550Z,8.80
2023-03-06T15:29:06.994Z,9.83
2023-03-06T15:31:36.975Z,10.10
2023-03-06T15:34:14.010Z,9.10
2023-03-06T15:36:41.109Z,10.17
2023-03-06T15:39:27.140Z,10.37
2023-03-06T15:41:58.427Z,9.17
2023-03-06T15:44:25.834Z,10.20
2023-03-06T15:47:06.616Z,10.30
2023-03-06T15:49:37.159Z,9.67
2023-03-06T15:52:04.443Z,9.40
2023-03-06T15:54:32.996Z,9.13
2023-03-06T15:57:00.303Z,9.60
2023-03-06T15:59:31.352Z,9.87
2023-03-06T16:02:00.332Z,9.63
2023-03-06T16:04:27.543Z,8.73
2023-03-06T16:06:54.680Z,8.57
2023-03-06T16:09:22.993Z,8.87
2023-03-06T16:11:50.248Z,9.30
2023-03-06T16:14:21.033Z,8.30
2023-03-06T16:16:49.320Z,8.00
2023-03-06T16:19:26.505Z,9.10
2023-03-06T16:21:54.581Z,9.87
2023-03-06T16:24:21.892Z,9.63
2023-03-06T16:26:53.044Z,9.23
2023-03-06T16:29:22.073Z,9.17
2023-03-06T16:31:49.274Z,8.97
2023-03-06T16:34:17.093Z,9.50
2023-03-06T16:36:44.223Z,11.97
2023-03-06T16:39:14.666Z,8.63
2023-03-06T16:41:41.915Z,9.87
2023-03-06T16:44:10.218Z,8.83
2023-03-06T16:46:42.296Z,9.03
2023-03-06T16:49:14.212Z,8.50
2023-03-06T16:51:41.343Z,8.80
2023-03-06T16:54:08.437Z,8.53
2023-03-06T16:56:35.565Z,8.20
2023-03-06T16:59:02.677Z,7.70
2023-03-06T17:01:29.885Z,8.53
2023-03-06T17:03:57.113Z,8.17
2023-03-06T17:06:24.265Z,7.73
2023-03-06T17:08:51.433Z,8.53
2023-03-06T17:11:20.308Z,8.67
2023-03-06T17:13:47.836Z,9.17
2023-03-06T17:16:18.448Z,9.97
2023-03-06T17:18:46.304Z,8.63
2023-03-06T17:21:15.594Z,10.33
2023-03-06T17:23:42.983Z,9.07
2023-03-06T17:26:14.647Z,9.20
2023-03-06T17:28:42.339Z,9.60
2023-03-06T17:31:20.384Z,9.30
2023-03-06T17:33:48.167Z,10.07
2023-03-06T17:36:15.839Z,10.63
2023-03-06T17:38:43.425Z,11.07
2023-03-06T17:41:11.249Z,10.17
2023-03-06T17:43:39.124Z,11.67
2023-03-06T17:46:06.987Z,10.40
2023-03-06T17:48:34.652Z,11.93
2023-03-06T17:51:01.816Z,12.07
2023-03-06T17:53:29.020Z,11.90
2023-03-06T17:55:58.037Z,12.40
2023-03-06T17:58:25.635Z,12.83
2023-03-06T18:00:52.826Z,12.07
2023-03-06T18:03:20.056Z,11.27
2023-03-06T18:05:47.227Z,11.63
2023-03-06T18:08:14.384Z,12.07
2023-03-06T18:10:42.542Z,11.17
2023-03-06T18:13:10.302Z,12.73
2023-03-06T18:15:41.017Z,12.10
2023-03-06T18:18:08.574Z,11.70
2023-03-06T18:20:35.969Z,11.77
2023-03-06T18:23:03.701Z,11.30
2023-03-06T18:25:31.706Z,10.90
2023-03-06T18:27:59.268Z,10.63
2023-03-06T18:30:26.723Z,10.20
2023-03-06T18:32:54.292Z,9.87
2023-03-06T18:35:21.762Z,10.33
2023-03-06T18:37:48.955Z,10.60
2023-03-06T18:40:16.202Z,10.10
2023-03-06T18:42:43.297Z,10.67
2023-03-06T18:45:11.024Z,17.90
2023-03-06T18:47:38.187Z,10.43
2023-03-06T18:50:05.640Z,10.60
2023-03-06T18:52:33.804Z,10.60
2023-03-06T18:55:00.921Z,10.60
2023-03-06T18:57:30.212Z,11.70
2023-03-06T18:59:57.564Z,11.50
2023-03-06T19:02:24.728Z,11.80
2023-03-06T19:04:53.038Z,12.07
2023-03-06T19:07:20.420Z,11.63
2023-03-06T19:09:49.054Z,12.53
2023-03-06T19:12:16.649Z,12.00
2023-03-06T19:14:44.190Z,12.07
2023-03-06T19:17:11.403Z,12.67
2023-03-06T19:19:38.568Z,13.23
2023-03-06T19:22:06.017Z,12.87
2023-03-06T19:24:33.255Z,12.87
2023-03-06T19:27:00.445Z,13.20
2023-03-06T19:29:28.441Z,12.57
2023-03-06T19:31:57.197Z,13.00
2023-03-06T19:34:24.386Z,13.47
2023-03-06T19:36:51.588Z,13.33
2023-03-06T19:39:18.731Z,13.87
2023-03-06T19:41:47.051Z,13.93
2023-03-06T19:44:16.134Z,12.97
2023-03-06T19:46:43.762Z,13.80
2023-03-06T19:49:16.829Z,13.20
2023-03-06T19:51:44.042Z,12.00
2023-03-06T19:54:12.224Z,11.73
2023-03-06T19:56:39.326Z,11.60
2023-03-06T19:59:06.462Z,11.83
2023-03-06T20:01:34.381Z,12.73
2023-03-06T20:04:01.697Z,12.10
2023-03-06T20:06:29.935Z,12.30
2023-03-06T20:08:57.149Z,11.20
2023-03-06T20:11:26.156Z,11.63
2023-03-06T20:13:53.762Z,10.90
2023-03-06T20:16:21.051Z,11.67
2023-03-06T20:18:48.201Z,11.47
2023-03-06T20:21:15.597Z,12.67
2023-03-06T20:23:43.198Z,12.27
2023-03-06T20:26:14.870Z,13.37
2023-03-06T20:28:42.647Z,14.63
2023-03-06T20:31:16.614Z,14.73
2023-03-06T20:33:44.727Z,12.77
2023-03-06T20:36:16.473Z,12.17
2023-03-06T20:38:43.743Z,12.93
2023-03-06T20:41:18.338Z,12.07
2023-03-06T20:43:45.746Z,12.23
2023-03-06T20:46:13.288Z,13.13
2023-03-06T20:48:40.801Z,12.13
2023-03-06T20:51:18.333Z,14.17
2023-03-06T20:53:46.792Z,14.87
2023-03-06T20:56:15.322Z,13.67
2023-03-06T20:58:42.438Z,13.50
2023-03-06T21:01:09.653Z,13.47
2023-03-06T21:03:36.762Z,14.20
2023-03-06T21:06:03.924Z,14.30
2023-03-06T21:08:31.736Z,12.93
2023-03-06T21:10:58.847Z,13.93
2023-03-06T21:13:25.923Z,14.20
2023-03-06T21:15:53.122Z,12.83
2023-03-06T21:18:20.298Z,14.10
2023-03-06T21:20:47.470Z,13.73
2023-03-06T21:23:14.981Z,13.63
2023-03-06T21:25:49.436Z,13.30
2023-03-06T21:28:17.223Z,13.50
2023-03-06T21:30:45.127Z,12.73
2023-03-06T21:33:13.018Z,13.47
2023-03-06T21:35:47.104Z,13.73
2023-03-06T21:38:14.348Z,13.00
2023-03-06T21:40:42.685Z,13.00
2023-03-06T21:43:10.360Z,13.10
2023-03-06T21:45:37.534Z,13.67
2023-03-06T21:48:04.768Z,13.37
2023-03-06T21:50:31.906Z,13.20
2023-03-06T21:52:59.046Z,12.17
2023-03-06T21:55:26.163Z,13.33
2023-03-06T21:57:53.962Z,12.97
2023-03-06T22:00:23.667Z,12.17
2023-03-06T22:02:51.290Z,12.60
2023-03-06T22:05:18.788Z,13.63
2023-03-06T22:07:45.922Z,12.63
2023-03-06T22:10:14.268Z,12.60
2023-03-06T22:12:41.507Z,12.57
2023-03-06T22:15:09.476Z,13.10
2023-03-06T22:17:36.594Z,12.30
2023-03-06T22:20:04.406Z,12.27
2023-03-06T22:22:31.881Z,13.70
2023-03-06T22:24:59.191Z,12.33
2023-03-06T22:27:26.291Z,12.70
2023-03-06T22:29:53.447Z,12.30
2023-03-06T22:32:20.738Z,12.33
2023-03-06T22:34:48.006Z,13.33
2023-03-06T22:37:15.173Z,13.33
2023-03-06T22:39:42.322Z,11.60
2023-03-06T22:42:09.874Z,11.60
2023-03-06T22:44:37.071Z,12.47
2023-03-06T22:47:04.202Z,12.33
2023-03-06T22:49:31.391Z,12.77
2023-03-06T22:51:58.493Z,13.27
2023-03-06T22:54:25.578Z,13.10
2023-03-06T22:56:52.712Z,13.53
2023-03-06T22:59:19.910Z,11.90
2023-03-06T23:01:47.044Z,12.03
2023-03-06T23:04:14.189Z,12.70
2023-03-06T23:06:43.172Z,13.43
2023-03-06T23:09:14.634Z,12.27
2023-03-06T23:11:41.748Z,13.07
2023-03-06T23:14:08.954Z,13.40
2023-03-06T23:16:36.602Z,12.67
2023-03-06T23:19:04.432Z,13.27
2023-03-06T23:21:31.588Z,13.43
2023-03-06T23:23:58.954Z,13.10
2023-03-06T23:26:27.005Z,13.63
2023-03-06T23:28:54.454Z,13.43
2023-03-06T23:31:23.865Z,13.20
2023-03-06T23:33:51.157Z,13.57
2023-03-06T23:36:18.927Z,12.20
2023-03-06T23:38:46.647Z,12.50
2023-03-06T23:41:15.586Z,12.57
2023-03-06T23:43:43.079Z,13.13
2023-03-06T23:46:10.437Z,12.97
2023-03-06T23:48:39.072Z,12.73
2023-03-06T23:51:10.237Z,13.03
2023-03-06T23:53:37.367Z,10.83
2023-03-06T23:56:06.126Z,12.27
2023-03-06T23:58:33.450Z,12.87
